Terminal Aerodrome Forecast
Issued by NWS Flagstaff, AZ

Home | Current Version | Previous Version | Text Only | Print | Product List | Glossary On
Versions: 1 2 3 4 5 6 7 8 9 10 11 12 13 14 15 16 17
000
FTUS45 KFGZ 222000 AAA
TAFINW
TAF AMD
KINW 222021Z 2220/2318 30015KT P6SM FEW060 BKN110
     FM222200 26011G17KT P6SM FEW060 BKN120
     FM230300 22008KT P6SM FEW050=

USA.gov is the U.S. government's official web portal to all federal, state and local government web resources and services.